createdAt,value
2018-07-24T00:13:01.886Z,22.48
2018-07-24T00:13:41.846Z,22.45
2018-07-24T00:14:22.349Z,22.45
2018-07-24T00:15:07.453Z,22.39
2018-07-24T00:15:47.775Z,22.39
2018-07-24T00:16:28.219Z,22.39
2018-07-24T00:17:08.632Z,22.42
2018-07-24T00:17:49.060Z,22.36
2018-07-24T00:18:29.385Z,22.38
2018-07-24T00:19:09.794Z,22.38
2018-07-24T00:19:50.228Z,22.38
2018-07-24T00:20:30.708Z,22.3
2018-07-24T00:21:11.190Z,22.38
2018-07-24T00:21:51.516Z,22.3
2018-07-24T00:22:31.918Z,22.21
2018-07-24T00:23:12.401Z,22.2
2018-07-24T00:23:52.889Z,22.2
2018-07-24T02:09:38.926Z,20.68
2018-07-24T02:16:56.628Z,20.63
2018-07-24T02:26:55.285Z,20.61
2018-07-24T02:41:17.535Z,20.37
2018-07-24T03:04:57.275Z,20.34
2018-07-24T03:05:36.672Z,20.33
2018-07-24T03:06:17.150Z,20.33
2018-07-24T03:06:57.426Z,20.31
2018-07-24T03:07:38.007Z,20.34
2018-07-24T03:08:18.266Z,20.3
2018-07-24T03:08:58.696Z,20.3
2018-07-24T03:09:39.155Z,20.31
2018-07-24T03:10:19.793Z,20.34
2018-07-24T03:10:59.902Z,20.27
2018-07-24T03:11:40.325Z,20.3
2018-07-24T03:12:20.717Z,20.27
2018-07-24T03:13:01.053Z,20.33
2018-07-24T03:13:41.482Z,20.27
2018-07-24T03:14:21.977Z,20.33
2018-07-24T03:15:02.352Z,20.27
2018-07-24T03:15:42.734Z,20.33
2018-07-24T03:16:23.368Z,20.23
2018-07-24T03:17:03.526Z,20.27
2018-07-24T03:17:44.064Z,20.26
2018-07-24T03:18:24.399Z,20.31
2018-07-24T03:19:04.868Z,20.3
2018-07-24T03:19:45.233Z,20.27
2018-07-24T03:20:25.775Z,20.17
2018-07-24T03:21:06.053Z,20.26
2018-07-24T03:21:46.419Z,20.19
2018-07-24T03:22:26.843Z,20.17
2018-07-24T03:23:07.265Z,20.15
2018-07-24T03:23:47.682Z,20.13
2018-07-24T03:24:28.134Z,20.2
2018-07-24T03:25:08.596Z,20.1
2018-07-24T03:25:48.999Z,20.25
2018-07-24T03:26:29.413Z,20.17
2018-07-24T03:27:09.843Z,20.17
2018-07-24T03:27:50.166Z,20.17
2018-07-24T03:28:30.592Z,20.08
2018-07-24T03:29:11.056Z,20.17
2018-07-24T03:29:51.420Z,20.17
2018-07-24T03:30:31.859Z,20.17
2018-07-24T03:31:12.464Z,20.13
2018-07-24T03:31:52.809Z,20.12
2018-07-24T03:32:33.236Z,20.1
2018-07-24T03:33:13.606Z,20.15
2018-07-24T03:33:54.012Z,20.12
2018-07-24T03:34:34.420Z,20.08
2018-07-24T03:35:14.793Z,20.1
2018-07-24T03:35:55.228Z,20.17
2018-07-24T03:36:35.659Z,20.13
2018-07-24T03:37:16.080Z,20.17
2018-07-24T03:37:56.428Z,20.19
2018-07-24T03:38:36.888Z,20.05
2018-07-24T03:39:17.281Z,20.08
2018-07-24T03:39:57.725Z,20.05
2018-07-24T03:40:38.109Z,20.08
2018-07-24T03:41:18.508Z,20.05
2018-07-24T03:41:58.933Z,20.12
2018-07-24T03:42:39.351Z,20.07
2018-07-24T03:43:19.706Z,20.07
2018-07-24T03:44:00.076Z,20.12
2018-07-24T03:44:40.520Z,20.08
2018-07-24T03:45:20.946Z,20.1
2018-07-24T03:46:01.255Z,20.08
2018-07-24T03:46:41.723Z,20.1
2018-07-24T03:47:22.074Z,20.05
2018-07-24T03:48:02.655Z,20.19
2018-07-24T03:48:43.038Z,20.1
2018-07-24T03:49:23.476Z,20.08
2018-07-24T03:50:03.963Z,20.08
2018-07-24T03:50:44.267Z,20.04
2018-07-24T03:51:24.675Z,20.05
2018-07-24T03:52:05.036Z,20.1
2018-07-24T03:52:45.480Z,20.07
2018-07-24T03:53:26.128Z,20.08
2018-07-24T03:54:06.501Z,20.08
2018-07-24T03:54:47.111Z,20.07
2018-07-24T03:55:27.395Z,20.07
2018-07-24T03:56:07.956Z,20.05
2018-07-24T03:56:48.302Z,20.1
2018-07-24T03:57:28.728Z,20.07
2018-07-24T03:58:09.134Z,20.05
2018-07-24T03:58:49.443Z,20.07
2018-07-24T03:59:30.029Z,20.02
2018-07-24T04:00:10.427Z,20.04
2018-07-24T04:00:50.744Z,20.07
2018-07-24T04:01:31.201Z,20.04
2018-07-24T04:02:11.560Z,20.05
2018-07-24T04:02:51.976Z,20.1
2018-07-24T04:03:32.421Z,20.1
2018-07-24T04:42:40.006Z,21.08
2018-07-24T04:43:18.686Z,21.15
2018-07-24T04:43:59.826Z,21.18
2018-07-24T04:44:40.625Z,21.24
2018-07-24T04:45:20.643Z,21.22
2018-07-24T04:46:01.103Z,21.33
2018-07-24T04:46:41.464Z,21.31
2018-07-24T04:47:21.830Z,21.42
2018-07-24T04:48:02.247Z,21.55
2018-07-24T04:48:42.719Z,21.64
2018-07-24T04:49:23.432Z,21.68
2018-07-24T04:50:03.642Z,21.83
2018-07-24T04:50:44.055Z,21.9
2018-07-24T04:51:24.510Z,22.05
2018-07-24T04:52:04.910Z,22.06
2018-07-24T04:52:45.370Z,22.06
2018-07-24T04:53:25.956Z,22.26
2018-07-24T04:54:06.361Z,22.35
2018-07-24T04:54:46.829Z,22.48
2018-07-24T04:55:27.202Z,22.56
2018-07-24T04:56:07.594Z,22.66
2018-07-24T04:56:48.010Z,22.78
2018-07-24T04:57:28.487Z,22.85
2018-07-24T04:58:08.846Z,22.96
2018-07-24T04:58:49.226Z,23
2018-07-24T04:59:29.714Z,23.01
2018-07-24T05:00:10.078Z,23.07
2018-07-24T05:00:50.538Z,23.04
2018-07-24T05:01:30.901Z,23.14
2018-07-24T05:02:11.414Z,23.19
2018-07-24T05:02:51.807Z,23.31
2018-07-24T05:03:32.233Z,23.42
2018-07-24T05:04:15.410Z,23.45
2018-07-24T05:04:55.812Z,23.59
2018-07-24T05:05:36.229Z,23.64
2018-07-24T05:06:16.641Z,23.75
2018-07-24T05:06:57.061Z,23.89
2018-07-24T05:07:37.489Z,23.96
2018-07-24T05:08:18.372Z,24.09
2018-07-24T05:08:58.729Z,24.21
2018-07-24T05:09:39.296Z,24.39
2018-07-24T05:10:19.709Z,24.52
2018-07-24T05:11:00.139Z,24.7
2018-07-24T05:11:40.709Z,24.71
2018-07-24T05:12:21.150Z,24.86
2018-07-24T05:13:01.577Z,24.8
2018-07-24T05:13:41.964Z,24.84
2018-07-24T05:14:22.387Z,24.87
2018-07-24T05:15:02.875Z,24.92
2018-07-24T05:15:43.359Z,25.05
2018-07-24T05:16:23.719Z,25.07
2018-07-24T05:17:04.139Z,25.19
2018-07-24T05:17:44.606Z,25.17
2018-07-24T05:18:24.990Z,25.23
2018-07-24T05:19:05.522Z,25.34
2018-07-24T05:19:45.891Z,25.41
2018-07-24T05:20:26.512Z,25.44
2018-07-24T05:21:06.948Z,25.53
2018-07-24T05:21:47.360Z,25.66
2018-07-24T05:22:27.769Z,25.83
2018-07-24T05:23:08.242Z,25.94
2018-07-24T05:23:48.688Z,26.12
2018-07-24T05:24:29.136Z,26.19
2018-07-24T05:25:09.522Z,26.38
2018-07-24T05:25:49.977Z,26.51
2018-07-24T05:26:30.420Z,26.6
2018-07-24T05:27:10.975Z,26.71
2018-07-24T05:27:51.427Z,26.88
2018-07-24T05:28:31.932Z,26.86
2018-07-24T05:29:12.347Z,26.87
2018-07-24T05:29:52.789Z,26.83
2018-07-24T05:30:33.424Z,26.88
2018-07-24T05:31:13.841Z,26.97
2018-07-24T05:31:54.229Z,27.03
2018-07-24T05:32:34.623Z,27.11
2018-07-24T05:33:15.177Z,27.16
2018-07-24T05:41:21.838Z,27.48
2018-07-24T05:41:59.764Z,27.45
2018-07-24T05:45:21.728Z,27.52
2018-07-24T05:46:01.774Z,27.65
2018-07-24T05:46:43.589Z,27.65
2018-07-24T05:47:24.492Z,27.78
2018-07-24T05:48:04.945Z,27.87
2018-07-24T05:49:43.680Z,28.05
2018-07-24T05:50:23.324Z,28.15
2018-07-24T05:51:03.865Z,28.18
2018-07-24T05:51:44.148Z,28.2
2018-07-24T05:52:24.527Z,28.32
2018-07-24T05:53:04.976Z,28.35
2018-07-24T05:53:45.370Z,28.35
2018-07-24T05:54:25.798Z,28.4
2018-07-24T05:55:06.264Z,28.48
2018-07-24T05:55:46.614Z,28.6
2018-07-24T05:56:27.016Z,28.69
2018-07-24T05:57:07.450Z,28.79
2018-07-24T05:57:47.876Z,28.88
2018-07-24T05:58:28.297Z,28.91
2018-07-24T05:59:08.707Z,29.07
2018-07-24T05:59:49.103Z,29.17
2018-07-24T06:00:29.572Z,29.36
2018-07-24T06:01:10.007Z,29.49
2018-07-24T06:01:50.467Z,29.55
2018-07-24T06:02:30.842Z,29.64
2018-07-24T06:03:11.290Z,29.54
2018-07-24T06:03:51.717Z,29.66
2018-07-24T06:04:32.119Z,29.63
2018-07-24T06:05:12.541Z,29.79
2018-07-24T06:05:53.384Z,29.79
2018-07-24T06:06:33.827Z,29.94
2018-07-24T06:07:14.249Z,30.13
2018-07-24T06:07:54.658Z,30.13
2018-07-24T06:08:35.139Z,30.15
2018-07-24T06:09:16.931Z,30.22
2018-07-24T06:09:57.085Z,30.34
2018-07-24T06:10:37.699Z,30.3
2018-07-24T06:11:18.404Z,30.21
2018-07-24T06:11:58.546Z,30.29
2018-07-24T06:12:39.998Z,30.23
2018-07-24T06:13:20.471Z,30.29
2018-07-24T06:14:00.194Z,30.3
2018-07-24T06:14:40.764Z,30.3
2018-07-24T06:15:21.130Z,30.37
2018-07-24T06:16:01.597Z,30.28
2018-07-24T06:16:42.517Z,30.34
2018-07-24T06:17:23.177Z,30.4
2018-07-24T06:18:04.098Z,30.57
2018-07-24T06:18:44.906Z,30.61
2018-07-24T06:19:25.622Z,30.57
2018-07-24T06:20:06.339Z,30.72
2018-07-24T06:20:47.036Z,30.82
2018-07-24T06:21:28.126Z,30.86
2018-07-24T06:22:07.984Z,31.05
2018-07-24T06:22:48.366Z,31.16
2018-07-24T06:23:29.069Z,31.15
2018-07-24T06:24:10.282Z,31.22
2018-07-24T06:24:50.717Z,31.16
2018-07-24T06:25:31.211Z,31.28
2018-07-24T06:26:11.595Z,31.34
2018-07-24T06:26:52.054Z,31.41
2018-07-24T06:27:32.425Z,31.42
2018-07-24T06:28:12.906Z,31.34
2018-07-24T06:28:53.371Z,31.28
2018-07-24T06:29:33.775Z,31.04
2018-07-24T06:30:14.875Z,31.09
2018-07-24T06:30:55.733Z,31.16
2018-07-24T06:31:36.354Z,31.18
2018-07-24T06:32:16.844Z,31.16
2018-07-24T06:32:57.373Z,30.98
2018-07-24T06:33:37.767Z,31.12
2018-07-24T06:34:18.130Z,31.12
2018-07-24T06:34:58.965Z,31.12
2018-07-24T06:35:39.360Z,31.09
2018-07-24T06:36:19.764Z,31.16
2018-07-24T06:37:00.253Z,31.22
2018-07-24T06:37:40.634Z,31.31
2018-07-24T06:38:21.036Z,31.53
2018-07-24T06:39:01.448Z,31.62
2018-07-24T06:39:41.908Z,31.67
2018-07-24T06:40:22.464Z,31.74
2018-07-24T06:41:02.840Z,31.71
2018-07-24T06:41:43.251Z,31.62
2018-07-24T06:42:23.769Z,31.54
2018-07-24T06:43:04.196Z,31.65
2018-07-24T06:43:44.578Z,31.76
2018-07-24T06:44:25.329Z,31.74
2018-07-24T06:45:06.525Z,31.65
2018-07-24T06:45:46.471Z,31.6
2018-07-24T06:46:26.958Z,31.56
2018-07-24T06:47:07.400Z,31.57
2018-07-24T06:47:47.905Z,31.5
2018-07-24T06:48:28.366Z,31.53
2018-07-24T06:49:09.759Z,31.52
2018-07-24T06:49:50.133Z,31.42
2018-07-24T06:50:30.821Z,31.37
2018-07-24T06:51:11.462Z,31.18
2018-07-24T06:51:51.767Z,31.25
2018-07-24T06:52:32.157Z,31.22
2018-07-24T06:53:12.586Z,31.38
2018-07-24T06:53:53.024Z,31.19
2018-07-24T06:54:33.459Z,31.19
2018-07-24T06:55:13.961Z,31.25
2018-07-24T06:55:54.395Z,31.25
2018-07-24T06:56:36.070Z,31.19
2018-07-24T06:57:16.008Z,31.12
2018-07-24T06:57:56.785Z,31.3
2018-07-24T06:58:37.564Z,31.37
2018-07-24T06:59:19.024Z,31.35
2018-07-24T06:59:59.011Z,31.41
2018-07-24T07:00:40.512Z,31.4
2018-07-24T07:01:22.026Z,31.3
2018-07-24T07:02:01.863Z,31.31
2018-07-24T07:02:42.456Z,31.22
2018-07-24T07:03:23.132Z,31.31
2018-07-24T07:04:03.786Z,31.37
2018-07-24T07:04:44.915Z,31.45
2018-07-24T07:05:25.280Z,31.49
2018-07-24T07:06:06.087Z,31.52
2018-07-24T07:06:50.289Z,31.57
2018-07-24T07:07:31.029Z,31.46
2018-07-24T07:08:11.839Z,31.46
2018-07-24T07:08:52.370Z,31.57
2018-07-24T07:09:33.544Z,31.59
2018-07-24T07:10:13.541Z,31.71
2018-07-24T07:10:54.531Z,31.67
2018-07-24T07:11:35.004Z,31.79
2018-07-24T07:12:15.746Z,31.64
2018-07-24T07:12:56.444Z,31.78
2018-07-24T07:13:37.274Z,31.72
2018-07-24T07:14:17.740Z,31.75
2018-07-24T07:14:58.008Z,31.79
2018-07-24T07:15:38.549Z,31.72
2018-07-24T07:16:18.979Z,31.76
2018-07-24T07:16:59.908Z,31.75
2018-07-24T07:17:40.094Z,31.78
2018-07-24T07:18:20.469Z,31.75
2018-07-24T07:19:01.034Z,31.76
2018-07-24T07:19:41.321Z,31.75
2018-07-24T07:20:22.003Z,31.85
2018-07-24T07:21:02.336Z,31.99
2018-07-24T07:21:43.292Z,32.07
2018-07-24T07:22:24.027Z,32.07
2018-07-24T07:23:05.044Z,32.1
2018-07-24T07:23:48.107Z,32.24
2018-07-24T07:24:28.503Z,32.31
2018-07-24T07:25:08.941Z,32.43
2018-07-24T07:25:49.476Z,32.51
2018-07-24T07:26:29.900Z,32.69
2018-07-24T07:27:10.328Z,32.62
2018-07-24T07:27:50.725Z,32.77
2018-07-24T07:28:31.190Z,32.73
2018-07-24T07:29:11.632Z,32.77
2018-07-24T07:29:52.065Z,32.84
2018-07-24T07:30:33.628Z,32.87
2018-07-24T07:31:14.069Z,32.95
2018-07-24T07:31:55.356Z,32.99
2018-07-24T07:32:36.040Z,32.84
2018-07-24T07:33:16.425Z,33
2018-07-24T07:33:56.850Z,33.02
2018-07-24T07:34:37.651Z,33.12
2018-07-24T07:35:18.423Z,33.28
2018-07-24T07:35:58.959Z,33.43
2018-07-24T07:36:39.561Z,33.5
2018-07-24T07:37:20.167Z,33.7
2018-07-24T07:38:00.752Z,33.72
2018-07-24T07:38:41.127Z,33.72
2018-07-24T07:39:21.600Z,33.72
2018-07-24T07:40:02.428Z,33.86
2018-07-24T07:40:43.036Z,33.94
2018-07-24T07:41:23.273Z,34.08
2018-07-24T07:42:03.752Z,34.16
2018-07-24T07:42:44.197Z,34.33
2018-07-24T07:43:24.645Z,34.45
2018-07-24T07:44:05.290Z,34.65
2018-07-24T07:44:45.696Z,34.71
2018-07-24T07:45:26.527Z,34.8
2018-07-24T07:46:06.929Z,34.75
2018-07-24T07:46:47.411Z,34.93
2018-07-24T07:47:27.974Z,35.09
2018-07-24T07:48:08.505Z,35.06
2018-07-24T07:48:48.883Z,35.2
2018-07-24T07:50:46.210Z,35.29
2018-07-24T07:52:47.439Z,35.59
2018-07-24T07:53:27.987Z,35.58
2018-07-24T07:54:08.427Z,35.56
2018-07-24T07:54:48.984Z,35.58
2018-07-24T07:55:29.836Z,35.55
2018-07-24T07:56:10.615Z,35.62
2018-07-24T07:56:51.025Z,35.81
2018-07-24T07:57:32.102Z,35.65
2018-07-24T07:58:12.098Z,35.65
2018-07-24T07:58:52.644Z,35.65
2018-07-24T07:59:33.056Z,35.73
2018-07-24T08:00:13.564Z,35.74
2018-07-24T08:00:54.996Z,35.65
2018-07-24T08:01:35.635Z,35.5
2018-07-24T08:02:16.089Z,35.43
2018-07-24T08:02:56.642Z,35.32
2018-07-24T08:07:06.449Z,35.43
2018-07-24T08:13:36.898Z,35.78
2018-07-24T08:14:17.870Z,35.69
2018-07-24T08:14:57.752Z,35.78
2018-07-24T08:15:38.277Z,35.87
2018-07-24T08:16:18.638Z,36.06
2018-07-24T08:16:59.119Z,36
2018-07-24T08:17:39.594Z,36.11
2018-07-24T08:18:20.724Z,35.93
2018-07-24T08:19:03.303Z,35.92
2018-07-24T08:19:43.857Z,36.06
2018-07-24T08:20:28.068Z,36.12
2018-07-24T08:21:08.847Z,36.3
2018-07-24T08:21:50.208Z,36.34
2018-07-24T08:22:30.752Z,36.27
2018-07-24T08:23:11.122Z,36.22
2018-07-24T08:23:51.665Z,36.16
2018-07-24T08:24:32.097Z,36.13
2018-07-24T08:25:12.771Z,36.23
2018-07-24T08:27:58.475Z,36.34
2018-07-24T08:28:39.087Z,36.38
2018-07-24T08:29:19.613Z,36.52
2018-07-24T08:30:00.386Z,36.53
2018-07-24T08:30:41.228Z,36.57
2018-07-24T08:31:21.583Z,36.67
2018-07-24T08:32:02.183Z,36.78
2018-07-24T08:32:42.701Z,37.01
2018-07-24T08:33:23.153Z,37.04
2018-07-24T08:34:04.936Z,37.16
2018-07-24T08:34:45.267Z,37.11
2018-07-24T08:35:27.159Z,36.94
2018-07-24T08:36:07.597Z,36.94
2018-07-24T08:36:48.183Z,36.94
2018-07-24T08:37:28.733Z,36.94
2018-07-24T08:38:12.317Z,36.87
2018-07-24T08:38:54.105Z,37.08
2018-07-24T08:39:34.458Z,37.13
2018-07-24T08:40:14.936Z,37.2
2018-07-24T08:40:55.328Z,37.28
2018-07-24T08:41:35.770Z,37.45
2018-07-24T08:42:16.246Z,37.56
2018-07-24T08:42:56.881Z,37.73
2018-07-24T08:43:37.435Z,37.82
2018-07-24T08:44:17.925Z,37.96
2018-07-24T08:44:58.326Z,37.96
2018-07-24T08:46:36.358Z,38.26
2018-07-24T08:47:16.962Z,38.33
2018-07-24T08:47:57.557Z,38.33
2018-07-24T08:48:39.385Z,38.4
2018-07-24T08:49:19.448Z,38.43
2018-07-24T08:50:00.125Z,38.52
2018-07-24T08:50:41.444Z,38.55
2018-07-24T08:51:21.453Z,38.67
2018-07-24T08:52:02.668Z,38.65
2018-07-24T08:52:46.441Z,38.52
2018-07-24T08:53:26.999Z,38.38
2018-07-24T08:54:07.269Z,38.33
2018-07-24T08:54:47.845Z,38.06
2018-07-24T08:55:28.761Z,38.03
2018-07-24T08:56:09.395Z,37.81
2018-07-24T09:03:44.962Z,36.99
2018-07-24T09:04:26.071Z,36.97
2018-07-24T09:05:07.689Z,37.06
2018-07-24T09:05:48.121Z,37.25
2018-07-24T09:06:28.464Z,37.33
2018-07-24T09:07:09.173Z,37.63
2018-07-24T09:07:49.660Z,37.68
2018-07-24T09:08:30.330Z,37.9
2018-07-24T09:09:10.879Z,37.9
2018-07-24T09:09:51.999Z,37.95
2018-07-24T09:10:33.545Z,38.09
2018-07-24T09:11:14.351Z,38.1
2018-07-24T09:11:55.337Z,38.19
2018-07-24T09:12:36.545Z,38.33
2018-07-24T09:13:17.209Z,38.47
2018-07-24T09:13:58.463Z,38.7
2018-07-24T09:14:39.826Z,38.63
2018-07-24T09:15:20.057Z,38.7
2018-07-24T09:16:01.463Z,38.82
2018-07-24T09:16:43.666Z,38.84
2018-07-24T09:17:23.978Z,38.74
2018-07-24T09:18:05.410Z,38.72
2018-07-24T09:18:45.513Z,38.82
2018-07-24T09:19:29.214Z,38.97
2018-07-24T09:20:09.535Z,39.06
2018-07-24T09:20:49.963Z,39.14
2018-07-24T09:21:30.869Z,39.24
2018-07-24T09:22:12.103Z,39.28
2018-07-24T09:22:52.843Z,39.34
2018-07-24T09:23:33.643Z,39.47
2018-07-24T09:25:37.892Z,39.73
2018-07-24T09:26:19.773Z,39.82
2018-07-24T09:27:00.841Z,39.73
2018-07-24T09:27:44.451Z,39.66
2018-07-24T09:28:26.121Z,39.53
2018-07-24T09:29:07.185Z,39.35
2018-07-24T09:29:47.307Z,39.06
2018-07-24T09:30:28.718Z,39
2018-07-24T09:31:10.296Z,38.98
2018-07-24T09:31:50.484Z,38.65
2018-07-24T09:32:31.599Z,38.63
2018-07-24T09:33:14.039Z,38.4
2018-07-24T09:34:12.319Z,38.4
2018-07-24T09:34:52.991Z,38.02
2018-07-24T09:38:14.333Z,38.63
2018-07-24T09:38:57.623Z,38.74
2018-07-24T09:39:38.803Z,38.89
2018-07-24T09:40:19.877Z,39.13
2018-07-24T09:41:00.564Z,39.16
2018-07-24T09:42:54.226Z,38.97
2018-07-24T09:43:34.722Z,38.92
2018-07-24T09:44:19.035Z,39
2018-07-24T09:45:01.103Z,39.12
2018-07-24T09:45:43.777Z,39.09
2018-07-24T09:46:24.187Z,38.93
2018-07-24T09:47:04.634Z,38.93
2018-07-24T09:47:45.720Z,39
2018-07-24T09:48:27.014Z,38.97
2018-07-24T09:49:07.869Z,38.86
2018-07-24T09:49:49.256Z,38.52
2018-07-24T09:50:30.297Z,38.33
2018-07-24T09:51:25.384Z,38.22
2018-07-24T09:52:09.009Z,38.3
2018-07-24T09:52:49.700Z,38.31
2018-07-24T09:53:30.600Z,38.33
2018-07-24T09:54:11.585Z,38.34
2018-07-24T09:54:53.601Z,38.52
2018-07-24T09:55:32.469Z,38.37
2018-07-24T09:56:15.181Z,38.37
2018-07-24T09:56:55.664Z,38.28
2018-07-24T09:57:36.124Z,38.14
2018-07-24T09:58:16.512Z,38.18
2018-07-24T09:58:57.359Z,38.21
2018-07-24T09:59:37.791Z,38.16
2018-07-24T10:00:18.209Z,38.3
2018-07-24T10:00:58.629Z,38.45
2018-07-24T10:01:39.125Z,38.68
2018-07-24T10:02:20.107Z,38.77
2018-07-24T10:03:00.190Z,38.92
2018-07-24T10:03:41.419Z,38.93
2018-07-24T10:04:21.819Z,38.77
2018-07-24T10:48:30.278Z,39.13
2018-07-24T10:49:10.608Z,39.32
2018-07-24T10:49:52.373Z,39.62
2018-07-24T10:50:32.902Z,39.8
2018-07-24T10:51:13.917Z,39.97
2018-07-24T10:51:54.371Z,40.11
2018-07-24T10:52:35.716Z,40.26
2018-07-24T10:54:41.599Z,40.85
2018-07-24T10:55:22.721Z,40.98
2018-07-24T10:57:26.416Z,40.9
2018-07-24T10:58:06.890Z,40.8
2018-07-24T10:58:47.316Z,40.97
2018-07-24T10:59:27.851Z,40.92
2018-07-24T11:00:10.089Z,40.97
2018-07-24T11:00:50.605Z,41.07
2018-07-24T11:01:35.121Z,41.26
2018-07-24T11:02:15.857Z,41.28
2018-07-24T11:03:00.241Z,41.31
2018-07-24T11:03:40.670Z,41.33
2018-07-24T11:04:21.795Z,41.46
2018-07-24T11:05:02.358Z,41.36
2018-07-24T11:05:44.440Z,41.1
2018-07-24T11:06:44.256Z,40.88
2018-07-24T11:07:25.575Z,40.82
2018-07-24T11:08:09.241Z,40.29
2018-07-24T11:08:53.241Z,40.21
2018-07-24T11:09:37.948Z,39.99
2018-07-24T11:10:19.234Z,39.87
2018-07-24T11:10:59.756Z,39.56
2018-07-24T11:11:40.485Z,39.47
2018-07-24T11:12:21.138Z,39.31
2018-07-24T11:13:01.738Z,39.16
2018-07-24T11:13:42.164Z,38.93
2018-07-24T11:14:23.211Z,38.49
2018-07-24T11:15:04.464Z,38.38
2018-07-24T11:15:45.785Z,38.58
2018-07-24T11:16:26.307Z,38.62
2018-07-24T11:17:06.796Z,38.7
2018-07-24T11:17:47.297Z,38.63
2018-07-24T11:18:30.722Z,38.19
2018-07-24T11:19:12.531Z,38.02
2018-07-24T11:19:53.276Z,37.87
2018-07-24T11:20:33.653Z,37.78
2018-07-24T11:21:15.625Z,37.47
2018-07-24T11:21:56.341Z,37.39
2018-07-24T11:22:37.578Z,37.35
2018-07-24T11:23:18.331Z,37.35
2018-07-24T11:23:58.781Z,37.4
2018-07-24T11:24:43.205Z,37.42
2018-07-24T11:25:23.581Z,37.54
2018-07-24T11:26:04.485Z,37.62
2018-07-24T11:26:45.199Z,37.78
2018-07-24T11:27:26.992Z,37.99
2018-07-24T11:28:08.135Z,37.95
2018-07-24T11:28:48.455Z,38
2018-07-24T11:29:29.414Z,38.02
2018-07-24T11:30:11.001Z,38.04
2018-07-24T11:30:50.852Z,38.04
2018-07-24T11:31:31.645Z,37.97
2018-07-24T11:32:13.638Z,38
2018-07-24T11:32:54.120Z,37.93
2018-07-24T11:35:01.524Z,37.84
2018-07-24T11:35:40.546Z,37.9
2018-07-24T11:37:29.361Z,38.19
2018-07-24T11:38:09.599Z,38.4
2018-07-24T11:38:50.115Z,38.71
2018-07-24T11:39:31.430Z,39.02
2018-07-24T11:40:12.244Z,39.22
2018-07-24T11:40:53.598Z,39.59
2018-07-24T11:41:33.286Z,39.76
2018-07-24T11:42:14.504Z,40.06
2018-07-24T11:42:54.681Z,40.22
2018-07-24T11:43:36.519Z,40.33
2018-07-24T11:44:17.115Z,40.49
2018-07-24T11:44:58.064Z,40.73
2018-07-24T11:45:38.381Z,40.92
2018-07-24T11:46:19.086Z,41.12
2018-07-24T11:46:59.426Z,41.32
2018-07-24T11:47:57.757Z,41.44
2018-07-24T11:48:39.589Z,41.41
2018-07-24T11:49:19.944Z,41.31
2018-07-24T11:50:01.297Z,41.23
2018-07-24T11:50:42.027Z,40.9
2018-07-24T11:51:23.017Z,40.88
2018-07-24T11:52:03.213Z,40.79
2018-07-24T11:52:44.512Z,40.9
2018-07-24T11:53:24.883Z,40.88
2018-07-24T11:54:05.367Z,41.05
2018-07-24T11:54:47.608Z,41.04
2018-07-24T11:55:26.629Z,41.26
2018-07-24T11:56:09.100Z,41.32
2018-07-24T11:57:00.874Z,41.41
2018-07-24T11:57:45.440Z,41.14
2018-07-24T11:58:29.297Z,41.01
2018-07-24T11:59:10.163Z,40.9
2018-07-24T12:03:32.716Z,41.04
2018-07-24T12:04:16.281Z,41.16
2018-07-24T12:04:57.777Z,41.26
2018-07-24T12:07:49.015Z,41.66
2018-07-24T12:08:30.706Z,41.58
2018-07-24T12:10:56.509Z,41.28
2018-07-24T12:11:37.143Z,41.38
2018-07-24T12:12:17.969Z,41.47
2018-07-24T12:14:32.197Z,41.28
2018-07-24T12:17:22.811Z,41.31
2018-07-24T12:18:03.464Z,41.36
2018-07-24T12:18:43.870Z,41.26
2018-07-24T12:19:24.392Z,41.13
2018-07-24T12:20:15.366Z,41.25
2018-07-24T12:20:57.675Z,41.28
2018-07-24T12:21:37.455Z,41.26
2018-07-24T12:22:18.586Z,41.16
2018-07-24T12:28:52.073Z,40.73
2018-07-24T12:29:33.287Z,40.85
2018-07-24T12:30:15.321Z,41.09
2018-07-24T12:30:56.824Z,41.28
2018-07-24T12:31:41.110Z,41.54
2018-07-24T12:32:22.250Z,41.66
2018-07-24T12:33:02.993Z,41.83
2018-07-24T12:33:46.423Z,41.88
2018-07-24T12:34:26.946Z,41.88
2018-07-24T12:35:07.347Z,41.93
2018-07-24T12:35:47.947Z,41.77
2018-07-24T12:37:12.513Z,41.16
2018-07-24T12:37:53.697Z,40.94
2018-07-24T12:38:38.181Z,40.54
2018-07-24T12:39:18.998Z,40.11
2018-07-24T12:40:00.959Z,39.82
2018-07-24T12:40:41.686Z,39.59
2018-07-24T12:41:22.120Z,39.28
2018-07-24T12:42:02.728Z,39.07
2018-07-24T12:42:47.627Z,38.87
2018-07-24T12:43:31.379Z,38.93
2018-07-24T12:44:11.602Z,38.93
2018-07-24T12:44:52.028Z,38.97
2018-07-24T12:45:32.800Z,39.02
2018-07-24T12:46:13.513Z,39.19
2018-07-24T12:46:55.306Z,39.34
2018-07-24T12:47:35.599Z,39.51
2018-07-24T12:48:16.087Z,39.82
2018-07-24T12:48:57.432Z,39.8
2018-07-24T12:49:51.638Z,39.94
2018-07-24T12:50:32.475Z,40.02
2018-07-24T12:51:14.201Z,40
2018-07-24T12:51:55.202Z,39.9
2018-07-24T12:52:35.823Z,39.73
2018-07-24T12:53:32.957Z,39.34
2018-07-24T12:54:15.834Z,39.17
2018-07-24T12:55:03.202Z,39.14
2018-07-24T12:55:45.171Z,39.1
2018-07-24T12:56:25.608Z,39.07
2018-07-24T12:57:06.494Z,39.07
2018-07-24T12:57:46.928Z,39.01
2018-07-24T12:58:27.477Z,39.14
2018-07-24T12:59:08.025Z,39.34
2018-07-24T12:59:48.751Z,39.51
2018-07-24T13:00:28.889Z,39.8
2018-07-24T13:01:09.340Z,39.94
2018-07-24T13:01:49.854Z,40.04
2018-07-24T13:02:30.361Z,40.25
2018-07-24T13:03:10.949Z,40.33
2018-07-24T13:03:51.305Z,40.53
2018-07-24T13:04:32.309Z,40.49
2018-07-24T13:05:12.916Z,40.68
2018-07-24T13:05:53.717Z,40.71
2018-07-24T13:06:34.362Z,40.66
2018-07-24T13:07:15.019Z,40.73
2018-07-24T13:07:55.475Z,40.86
2018-07-24T13:13:09.206Z,40.71
2018-07-24T13:13:49.463Z,40.63
2018-07-24T13:14:31.233Z,40.44
2018-07-24T13:15:12.332Z,40.28
2018-07-24T13:15:52.015Z,40.03
2018-07-24T13:16:34.133Z,39.78
2018-07-24T13:17:14.585Z,39.66
2018-07-24T13:23:27.455Z,39.61
2018-07-24T13:24:08.870Z,39.66
2018-07-24T13:24:52.639Z,39.56
2018-07-24T13:25:34.681Z,39.56
2018-07-24T13:26:14.891Z,39.43
2018-07-24T13:26:56.887Z,39.46
2018-07-24T13:27:39.434Z,39.51
2018-07-24T13:28:20.866Z,39.59
2018-07-24T13:29:01.609Z,39.53
2018-07-24T13:29:43.193Z,39.57
2018-07-24T13:30:23.178Z,39.44
2018-07-24T13:31:03.920Z,39.41
2018-07-24T13:31:44.516Z,39.51
2018-07-24T13:32:24.935Z,39.31
2018-07-24T13:33:05.675Z,39.32
2018-07-24T13:33:46.988Z,39.02
2018-07-24T13:34:29.341Z,39.01
2018-07-24T13:35:10.122Z,38.89
2018-07-24T13:38:26.973Z,38.7
2018-07-24T13:40:53.008Z,38.55
2018-07-24T13:41:33.491Z,38.53
2018-07-24T13:42:13.905Z,38.55
2018-07-24T13:42:54.611Z,38.6
2018-07-24T13:43:35.957Z,38.7
2018-07-24T13:50:48.166Z,40.04
2018-07-24T13:51:28.846Z,40.11
2018-07-24T13:52:09.663Z,40.31
2018-07-24T13:52:50.326Z,40.48
2018-07-24T13:53:31.414Z,40.51
2018-07-24T13:54:11.919Z,40.71
2018-07-24T13:54:55.103Z,40.71
2018-07-24T13:55:36.093Z,40.46
2018-07-24T13:56:17.350Z,40.25
2018-07-24T13:56:57.922Z,40.13
2018-07-24T13:57:41.155Z,40.02
2018-07-24T13:58:21.121Z,39.92
2018-07-24T13:59:02.517Z,39.99
2018-07-24T13:59:47.101Z,39.8
2018-07-24T14:00:29.814Z,39.65
2018-07-24T14:01:10.760Z,39.62
2018-07-24T14:01:52.795Z,39.28
2018-07-24T14:02:32.982Z,39.31
2018-07-24T14:03:18.660Z,39.13
2018-07-24T14:03:59.623Z,39.02
2018-07-24T14:04:46.176Z,38.93
2018-07-24T14:05:25.719Z,38.81
2018-07-24T14:06:07.919Z,38.68
2018-07-24T14:06:49.378Z,38.63
2018-07-24T14:07:30.599Z,38.67
2018-07-24T14:08:12.221Z,38.53
2018-07-24T14:09:50.322Z,38.7
2018-07-24T14:10:32.228Z,38.6
2018-07-24T14:11:20.237Z,38.58
2018-07-24T14:12:01.222Z,38.6
2018-07-24T14:12:41.643Z,38.63
2018-07-24T14:13:22.598Z,38.68
2018-07-24T14:14:03.013Z,38.72
2018-07-24T14:14:43.431Z,38.98
2018-07-24T14:15:24.498Z,39.16
2018-07-24T14:16:05.000Z,39.25
2018-07-24T14:16:47.633Z,39.34
2018-07-24T14:17:29.663Z,39.34
2018-07-24T14:18:10.301Z,39.32
2018-07-24T14:26:47.594Z,40.36
2018-07-24T14:27:29.670Z,40.61
2018-07-24T14:28:10.072Z,40.71
2018-07-24T14:28:51.467Z,40.82
2018-07-24T14:30:58.071Z,40.94
2018-07-24T14:31:40.479Z,40.91
2018-07-24T14:32:20.277Z,40.82
2018-07-24T14:33:02.348Z,40.61
2018-07-24T14:33:43.157Z,40.39
2018-07-24T14:34:24.376Z,40.15
2018-07-24T14:35:05.050Z,40
2018-07-24T14:35:47.354Z,39.32